sensor_id;sensor_type;location;lat;lon;timestamp;P1;durP1;ratioP1;P2;durP2;ratioP2
70942;SDS011;59154;51.970;5.650;2023-01-04T00:00:03;4.8;;;2.9;;
70942;SDS011;59154;51.970;5.650;2023-01-04T00:05:02;3.7;;;1.9;;
70942;SDS011;59154;51.970;5.650;2023-01-04T00:10:03;5.8;;;2.2;;
70942;SDS011;59154;51.970;5.650;2023-01-04T00:15:03;3.7;;;2.4;;
70942;SDS011;59154;51.970;5.650;2023-01-04T00:20:03;3.2;;;2.1;;
70942;SDS011;59154;51.970;5.650;2023-01-04T00:25:02;5.0;;;2.1;;
70942;SDS011;59154;51.970;5.650;2023-01-04T00:30:02;7.5;;;2.5;;
70942;SDS011;59154;51.970;5.650;2023-01-04T00:35:02;5.5;;;1.9;;
70942;SDS011;59154;51.970;5.650;2023-01-04T00:40:04;5.8;;;2.2;;
70942;SDS011;59154;51.970;5.650;2023-01-04T00:45:03;4.5;;;2.2;;
70942;SDS011;59154;51.970;5.650;2023-01-04T00:50:03;6.0;;;2.2;;
70942;SDS011;59154;51.970;5.650;2023-01-04T00:55:02;7.0;;;2.0;;
70942;SDS011;59154;51.970;5.650;2023-01-04T01:00:04;3.8;;;1.8;;
70942;SDS011;59154;51.970;5.650;2023-01-04T01:05:02;2.4;;;1.5;;
70942;SDS011;59154;51.970;5.650;2023-01-04T01:10:02;3.0;;;1.7;;
70942;SDS011;59154;51.970;5.650;2023-01-04T01:15:02;3.7;;;1.7;;
70942;SDS011;59154;51.970;5.650;2023-01-04T01:20:03;4.1;;;1.8;;
70942;SDS011;59154;51.970;5.650;2023-01-04T01:25:03;5.1;;;2.0;;
70942;SDS011;59154;51.970;5.650;2023-01-04T01:30:03;2.6;;;1.5;;
70942;SDS011;59154;51.970;5.650;2023-01-04T01:35:02;3.2;;;1.7;;
70942;SDS011;59154;51.970;5.650;2023-01-04T01:40:03;2.4;;;1.5;;
70942;SDS011;59154;51.970;5.650;2023-01-04T01:45:03;4.6;;;1.8;;
70942;SDS011;59154;51.970;5.650;2023-01-04T01:50:03;3.1;;;1.6;;
70942;SDS011;59154;51.970;5.650;2023-01-04T01:55:03;2.4;;;1.5;;
70942;SDS011;59154;51.970;5.650;2023-01-04T02:00:05;1.7;;;1.3;;
70942;SDS011;59154;51.970;5.650;2023-01-04T02:05:02;2.6;;;1.2;;
70942;SDS011;59154;51.970;5.650;2023-01-04T02:10:02;2.5;;;1.3;;
70942;SDS011;59154;51.970;5.650;2023-01-04T02:15:03;1.3;;;1.2;;
70942;SDS011;59154;51.970;5.650;2023-01-04T02:20:08;2.9;;;1.3;;
70942;SDS011;59154;51.970;5.650;2023-01-04T02:25:08;2.0;;;1.3;;
70942;SDS011;59154;51.970;5.650;2023-01-04T02:30:15;2.8;;;1.2;;
70942;SDS011;59154;51.970;5.650;2023-01-04T02:35:03;1.8;;;1.3;;
70942;SDS011;59154;51.970;5.650;2023-01-04T02:40:06;2.3;;;1.1;;
70942;SDS011;59154;51.970;5.650;2023-01-04T02:45:02;2.1;;;1.4;;
70942;SDS011;59154;51.970;5.650;2023-01-04T02:50:07;1.8;;;1.4;;
70942;SDS011;59154;51.970;5.650;2023-01-04T02:55:03;2.7;;;1.2;;
70942;SDS011;59154;51.970;5.650;2023-01-04T03:00:09;2.4;;;1.6;;
70942;SDS011;59154;51.970;5.650;2023-01-04T03:05:04;2.5;;;1.4;;
70942;SDS011;59154;51.970;5.650;2023-01-04T03:10:05;1.8;;;1.4;;
70942;SDS011;59154;51.970;5.650;2023-01-04T03:15:03;1.8;;;1.4;;
70942;SDS011;59154;51.970;5.650;2023-01-04T03:20:04;1.5;;;1.4;;
70942;SDS011;59154;51.970;5.650;2023-01-04T03:25:03;3.2;;;1.3;;
70942;SDS011;59154;51.970;5.650;2023-01-04T03:30:04;2.6;;;1.6;;
70942;SDS011;59154;51.970;5.650;2023-01-04T03:35:02;1.6;;;1.5;;
70942;SDS011;59154;51.970;5.650;2023-01-04T03:40:08;2.3;;;1.9;;
70942;SDS011;59154;51.970;5.650;2023-01-04T03:45:05;2.5;;;1.8;;
70942;SDS011;59154;51.970;5.650;2023-01-04T03:50:04;2.4;;;1.9;;
70942;SDS011;59154;51.970;5.650;2023-01-04T03:55:02;2.7;;;1.7;;
70942;SDS011;59154;51.970;5.650;2023-01-04T04:00:04;2.0;;;1.6;;
70942;SDS011;59154;51.970;5.650;2023-01-04T04:05:02;2.3;;;1.8;;
70942;SDS011;59154;51.970;5.650;2023-01-04T04:10:03;2.8;;;1.9;;
70942;SDS011;59154;51.970;5.650;2023-01-04T04:15:02;3.2;;;2.1;;
70942;SDS011;59154;51.970;5.650;2023-01-04T04:20:03;1.8;;;1.5;;
70942;SDS011;59154;51.970;5.650;2023-01-04T04:25:03;2.4;;;1.9;;
70942;SDS011;59154;51.970;5.650;2023-01-04T04:30:03;3.8;;;2.1;;
70942;SDS011;59154;51.970;5.650;2023-01-04T04:35:02;3.3;;;2.5;;
70942;SDS011;59154;51.970;5.650;2023-01-04T04:40:03;3.7;;;2.3;;
70942;SDS011;59154;51.970;5.650;2023-01-04T04:45:03;3.1;;;2.3;;
70942;SDS011;59154;51.970;5.650;2023-01-04T04:50:02;3.4;;;2.2;;
70942;SDS011;59154;51.970;5.650;2023-01-04T04:55:03;3.8;;;2.3;;
70942;SDS011;59154;51.970;5.650;2023-01-04T05:00:03;3.1;;;2.2;;
70942;SDS011;59154;51.970;5.650;2023-01-04T05:05:02;3.6;;;2.1;;
70942;SDS011;59154;51.970;5.650;2023-01-04T05:10:03;2.5;;;2.0;;
70942;SDS011;59154;51.970;5.650;2023-01-04T05:15:02;3.6;;;2.1;;
70942;SDS011;59154;51.970;5.650;2023-01-04T05:20:03;3.2;;;2.3;;
70942;SDS011;59154;51.970;5.650;2023-01-04T05:25:02;4.4;;;3.4;;
70942;SDS011;59154;51.970;5.650;2023-01-04T05:30:03;3.8;;;2.2;;
70942;SDS011;59154;51.970;5.650;2023-01-04T05:35:02;3.8;;;2.0;;
70942;SDS011;59154;51.970;5.650;2023-01-04T05:40:03;3.4;;;2.0;;
70942;SDS011;59154;51.970;5.650;2023-01-04T05:45:02;5.6;;;2.5;;
70942;SDS011;59154;51.970;5.650;2023-01-04T05:50:03;4.5;;;2.8;;
70942;SDS011;59154;51.970;5.650;2023-01-04T05:55:03;3.7;;;2.5;;
70942;SDS011;59154;51.970;5.650;2023-01-04T06:00:04;4.1;;;2.2;;
70942;SDS011;59154;51.970;5.650;2023-01-04T06:05:02;3.4;;;2.2;;
70942;SDS011;59154;51.970;5.650;2023-01-04T06:10:02;3.7;;;2.3;;
70942;SDS011;59154;51.970;5.650;2023-01-04T06:15:02;3.5;;;2.2;;
70942;SDS011;59154;51.970;5.650;2023-01-04T06:20:04;5.4;;;2.3;;
70942;SDS011;59154;51.970;5.650;2023-01-04T06:25:02;2.4;;;1.9;;
70942;SDS011;59154;51.970;5.650;2023-01-04T06:30:03;2.7;;;2.0;;
70942;SDS011;59154;51.970;5.650;2023-01-04T06:35:02;2.2;;;1.8;;
70942;SDS011;59154;51.970;5.650;2023-01-04T06:40:03;2.6;;;1.8;;
70942;SDS011;59154;51.970;5.650;2023-01-04T06:45:02;4.5;;;2.3;;
70942;SDS011;59154;51.970;5.650;2023-01-04T06:50:03;2.4;;;1.9;;
70942;SDS011;59154;51.970;5.650;2023-01-04T06:55:02;3.2;;;1.9;;
70942;SDS011;59154;51.970;5.650;2023-01-04T07:00:03;2.5;;;2.0;;
70942;SDS011;59154;51.970;5.650;2023-01-04T07:05:02;4.5;;;2.3;;
70942;SDS011;59154;51.970;5.650;2023-01-04T07:10:03;3.6;;;1.9;;
70942;SDS011;59154;51.970;5.650;2023-01-04T07:15:03;4.1;;;2.3;;
70942;SDS011;59154;51.970;5.650;2023-01-04T07:20:04;4.0;;;2.2;;
70942;SDS011;59154;51.970;5.650;2023-01-04T07:25:02;3.1;;;2.2;;
70942;SDS011;59154;51.970;5.650;2023-01-04T07:30:03;2.7;;;1.9;;
70942;SDS011;59154;51.970;5.650;2023-01-04T07:35:02;4.6;;;2.1;;
70942;SDS011;59154;51.970;5.650;2023-01-04T07:40:03;5.1;;;2.1;;
70942;SDS011;59154;51.970;5.650;2023-01-04T07:45:02;2.8;;;2.0;;
70942;SDS011;59154;51.970;5.650;2023-01-04T07:50:03;5.1;;;2.3;;
70942;SDS011;59154;51.970;5.650;2023-01-04T07:55:02;2.9;;;2.0;;
70942;SDS011;59154;51.970;5.650;2023-01-04T08:00:03;3.1;;;2.0;;
70942;SDS011;59154;51.970;5.650;2023-01-04T08:05:02;2.5;;;1.8;;
70942;SDS011;59154;51.970;5.650;2023-01-04T08:10:02;2.4;;;1.9;;
70942;SDS011;59154;51.970;5.650;2023-01-04T08:15:03;3.0;;;1.8;;
70942;SDS011;59154;51.970;5.650;2023-01-04T08:20:03;4.9;;;2.1;;
70942;SDS011;59154;51.970;5.650;2023-01-04T08:25:03;2.2;;;1.7;;
70942;SDS011;59154;51.970;5.650;2023-01-04T08:30:02;3.9;;;2.1;;
70942;SDS011;59154;51.970;5.650;2023-01-04T08:35:02;4.2;;;1.8;;
70942;SDS011;59154;51.970;5.650;2023-01-04T08:40:04;3.8;;;1.9;;
70942;SDS011;59154;51.970;5.650;2023-01-04T08:45:02;3.1;;;1.4;;
70942;SDS011;59154;51.970;5.650;2023-01-04T08:50:03;1.8;;;1.4;;
70942;SDS011;59154;51.970;5.650;2023-01-04T08:55:02;4.5;;;1.8;;
70942;SDS011;59154;51.970;5.650;2023-01-04T09:00:03;2.2;;;1.6;;
70942;SDS011;59154;51.970;5.650;2023-01-04T09:05:02;2.3;;;1.8;;
70942;SDS011;59154;51.970;5.650;2023-01-04T09:10:03;2.9;;;1.8;;
70942;SDS011;59154;51.970;5.650;2023-01-04T09:15:02;5.0;;;1.7;;
70942;SDS011;59154;51.970;5.650;2023-01-04T09:20:03;2.3;;;1.8;;
70942;SDS011;59154;51.970;5.650;2023-01-04T09:25:03;4.0;;;1.8;;
70942;SDS011;59154;51.970;5.650;2023-01-04T09:30:02;4.1;;;2.1;;
70942;SDS011;59154;51.970;5.650;2023-01-04T09:35:02;3.6;;;2.0;;
70942;SDS011;59154;51.970;5.650;2023-01-04T09:40:03;3.1;;;2.3;;
70942;SDS011;59154;51.970;5.650;2023-01-04T09:45:04;4.0;;;2.7;;
70942;SDS011;59154;51.970;5.650;2023-01-04T09:50:04;4.3;;;2.9;;
70942;SDS011;59154;51.970;5.650;2023-01-04T09:55:02;6.0;;;3.1;;
70942;SDS011;59154;51.970;5.650;2023-01-04T10:00:04;5.1;;;2.5;;
70942;SDS011;59154;51.970;5.650;2023-01-04T10:05:02;4.5;;;2.7;;
70942;SDS011;59154;51.970;5.650;2023-01-04T10:10:02;3.6;;;2.6;;
70942;SDS011;59154;51.970;5.650;2023-01-04T10:15:05;3.6;;;2.5;;
70942;SDS011;59154;51.970;5.650;2023-01-04T10:20:11;4.1;;;3.0;;
70942;SDS011;59154;51.970;5.650;2023-01-04T10:25:06;3.2;;;2.6;;
70942;SDS011;59154;51.970;5.650;2023-01-04T10:30:06;4.5;;;2.6;;
70942;SDS011;59154;51.970;5.650;2023-01-04T10:35:06;3.7;;;2.2;;
70942;SDS011;59154;51.970;5.650;2023-01-04T10:40:09;3.0;;;2.4;;
70942;SDS011;59154;51.970;5.650;2023-01-04T10:45:06;4.1;;;2.3;;
70942;SDS011;59154;51.970;5.650;2023-01-04T10:50:06;3.8;;;2.4;;
70942;SDS011;59154;51.970;5.650;2023-01-04T10:55:03;4.6;;;2.3;;
70942;SDS011;59154;51.970;5.650;2023-01-04T11:00:04;3.1;;;2.3;;
70942;SDS011;59154;51.970;5.650;2023-01-04T11:05:03;2.6;;;2.1;;
70942;SDS011;59154;51.970;5.650;2023-01-04T11:10:04;4.0;;;2.3;;
70942;SDS011;59154;51.970;5.650;2023-01-04T11:15:03;3.2;;;2.0;;
70942;SDS011;59154;51.970;5.650;2023-01-04T11:20:03;3.2;;;2.1;;
70942;SDS011;59154;51.970;5.650;2023-01-04T11:25:04;2.5;;;1.8;;
70942;SDS011;59154;51.970;5.650;2023-01-04T11:30:04;3.3;;;1.9;;
70942;SDS011;59154;51.970;5.650;2023-01-04T11:35:03;2.9;;;1.6;;
70942;SDS011;59154;51.970;5.650;2023-01-04T11:40:12;3.3;;;1.6;;
70942;SDS011;59154;51.970;5.650;2023-01-04T11:45:03;2.9;;;1.6;;
70942;SDS011;59154;51.970;5.650;2023-01-04T11:50:02;2.2;;;1.5;;
70942;SDS011;59154;51.970;5.650;2023-01-04T11:55:22;2.0;;;1.5;;
70942;SDS011;59154;51.970;5.650;2023-01-04T12:00:06;2.6;;;2.0;;
70942;SDS011;59154;51.970;5.650;2023-01-04T12:05:05;2.7;;;1.4;;
70942;SDS011;59154;51.970;5.650;2023-01-04T12:10:10;1.8;;;1.5;;
70942;SDS011;59154;51.970;5.650;2023-01-04T12:15:04;2.7;;;1.5;;
70942;SDS011;59154;51.970;5.650;2023-01-04T12:20:04;2.3;;;1.7;;
70942;SDS011;59154;51.970;5.650;2023-01-04T12:25:03;3.5;;;1.8;;
70942;SDS011;59154;51.970;5.650;2023-01-04T12:30:03;2.7;;;1.9;;
70942;SDS011;59154;51.970;5.650;2023-01-04T12:35:03;2.5;;;2.1;;
70942;SDS011;59154;51.970;5.650;2023-01-04T12:40:03;2.8;;;1.8;;
70942;SDS011;59154;51.970;5.650;2023-01-04T12:45:13;3.6;;;2.2;;
70942;SDS011;59154;51.970;5.650;2023-01-04T12:50:03;3.7;;;2.2;;
70942;SDS011;59154;51.970;5.650;2023-01-04T12:55:03;7.5;;;2.1;;
70942;SDS011;59154;51.970;5.650;2023-01-04T13:00:04;5.1;;;1.8;;
70942;SDS011;59154;51.970;5.650;2023-01-04T13:05:03;2.0;;;1.7;;
70942;SDS011;59154;51.970;5.650;2023-01-04T13:10:16;5.1;;;1.8;;
70942;SDS011;59154;51.970;5.650;2023-01-04T13:15:03;3.9;;;1.6;;
70942;SDS011;59154;51.970;5.650;2023-01-04T13:20:11;4.1;;;2.1;;
70942;SDS011;59154;51.970;5.650;2023-01-04T13:25:02;2.1;;;1.7;;
70942;SDS011;59154;51.970;5.650;2023-01-04T13:30:03;3.1;;;1.8;;
70942;SDS011;59154;51.970;5.650;2023-01-04T13:35:02;2.3;;;1.7;;
70942;SDS011;59154;51.970;5.650;2023-01-04T13:40:19;3.1;;;1.8;;
70942;SDS011;59154;51.970;5.650;2023-01-04T13:45:06;2.5;;;1.9;;
70942;SDS011;59154;51.970;5.650;2023-01-04T13:50:03;2.9;;;1.7;;
70942;SDS011;59154;51.970;5.650;2023-01-04T13:55:10;3.5;;;1.9;;
70942;SDS011;59154;51.970;5.650;2023-01-04T14:00:04;5.2;;;2.1;;
70942;SDS011;59154;51.970;5.650;2023-01-04T14:05:02;6.4;;;2.4;;
70942;SDS011;59154;51.970;5.650;2023-01-04T14:10:03;4.5;;;2.2;;
70942;SDS011;59154;51.970;5.650;2023-01-04T14:15:03;3.9;;;1.9;;
70942;SDS011;59154;51.970;5.650;2023-01-04T14:20:04;6.9;;;2.3;;
70942;SDS011;59154;51.970;5.650;2023-01-04T14:25:29;3.6;;;2.0;;
70942;SDS011;59154;51.970;5.650;2023-01-04T14:30:13;2.8;;;1.6;;
70942;SDS011;59154;51.970;5.650;2023-01-04T14:35:04;5.5;;;1.8;;
70942;SDS011;59154;51.970;5.650;2023-01-04T14:40:11;3.4;;;1.7;;
70942;SDS011;59154;51.970;5.650;2023-01-04T14:45:04;4.2;;;1.9;;
70942;SDS011;59154;51.970;5.650;2023-01-04T14:50:02;5.1;;;1.9;;
70942;SDS011;59154;51.970;5.650;2023-01-04T14:55:02;4.9;;;2.3;;
70942;SDS011;59154;51.970;5.650;2023-01-04T15:00:03;5.4;;;1.9;;
70942;SDS011;59154;51.970;5.650;2023-01-04T15:05:02;6.4;;;2.1;;
70942;SDS011;59154;51.970;5.650;2023-01-04T15:10:03;3.5;;;2.0;;
70942;SDS011;59154;51.970;5.650;2023-01-04T15:15:03;4.5;;;2.4;;
70942;SDS011;59154;51.970;5.650;2023-01-04T15:20:04;3.9;;;2.2;;
70942;SDS011;59154;51.970;5.650;2023-01-04T15:25:03;10.1;;;2.9;;
70942;SDS011;59154;51.970;5.650;2023-01-04T15:30:02;7.1;;;3.0;;
70942;SDS011;59154;51.970;5.650;2023-01-04T15:35:03;8.3;;;2.8;;
70942;SDS011;59154;51.970;5.650;2023-01-04T15:40:03;9.8;;;3.1;;
70942;SDS011;59154;51.970;5.650;2023-01-04T15:45:02;8.3;;;3.2;;
70942;SDS011;59154;51.970;5.650;2023-01-04T15:50:03;10.2;;;4.1;;
70942;SDS011;59154;51.970;5.650;2023-01-04T15:55:02;9.4;;;3.0;;
70942;SDS011;59154;51.970;5.650;2023-01-04T16:00:03;9.7;;;3.7;;
70942;SDS011;59154;51.970;5.650;2023-01-04T16:05:02;6.8;;;2.8;;
70942;SDS011;59154;51.970;5.650;2023-01-04T16:10:03;15.0;;;4.0;;
70942;SDS011;59154;51.970;5.650;2023-01-04T16:15:02;9.6;;;3.8;;
70942;SDS011;59154;51.970;5.650;2023-01-04T16:20:03;10.5;;;4.0;;
70942;SDS011;59154;51.970;5.650;2023-01-04T16:25:03;10.8;;;4.0;;
70942;SDS011;59154;51.970;5.650;2023-01-04T16:30:02;14.5;;;4.8;;
70942;SDS011;59154;51.970;5.650;2023-01-04T16:35:02;11.6;;;4.7;;
70942;SDS011;59154;51.970;5.650;2023-01-04T16:40:04;10.3;;;4.5;;
70942;SDS011;59154;51.970;5.650;2023-01-04T16:45:02;9.8;;;3.7;;
70942;SDS011;59154;51.970;5.650;2023-01-04T16:50:03;12.8;;;4.5;;
70942;SDS011;59154;51.970;5.650;2023-01-04T16:55:03;11.8;;;4.3;;
70942;SDS011;59154;51.970;5.650;2023-01-04T17:00:03;9.7;;;4.5;;
70942;SDS011;59154;51.970;5.650;2023-01-04T17:05:02;11.8;;;3.2;;
70942;SDS011;59154;51.970;5.650;2023-01-04T17:10:03;12.8;;;3.6;;
70942;SDS011;59154;51.970;5.650;2023-01-04T17:15:02;8.9;;;3.4;;
70942;SDS011;59154;51.970;5.650;2023-01-04T17:20:03;8.6;;;3.6;;
70942;SDS011;59154;51.970;5.650;2023-01-04T17:25:02;12.0;;;4.0;;
70942;SDS011;59154;51.970;5.650;2023-01-04T17:30:02;11.6;;;4.5;;
70942;SDS011;59154;51.970;5.650;2023-01-04T17:35:03;11.9;;;3.2;;
70942;SDS011;59154;51.970;5.650;2023-01-04T17:40:04;13.1;;;4.7;;
70942;SDS011;59154;51.970;5.650;2023-01-04T17:45:02;15.6;;;4.4;;
70942;SDS011;59154;51.970;5.650;2023-01-04T17:50:02;15.6;;;4.8;;
70942;SDS011;59154;51.970;5.650;2023-01-04T17:55:02;16.9;;;4.9;;
70942;SDS011;59154;51.970;5.650;2023-01-04T18:00:03;14.7;;;4.8;;
70942;SDS011;59154;51.970;5.650;2023-01-04T18:05:02;14.5;;;4.8;;
70942;SDS011;59154;51.970;5.650;2023-01-04T18:10:02;12.8;;;4.5;;
70942;SDS011;59154;51.970;5.650;2023-01-04T18:15:03;14.1;;;4.8;;
70942;SDS011;59154;51.970;5.650;2023-01-04T18:20:03;16.8;;;5.1;;
70942;SDS011;59154;51.970;5.650;2023-01-04T18:25:02;13.5;;;4.8;;
70942;SDS011;59154;51.970;5.650;2023-01-04T18:30:03;17.4;;;5.4;;
70942;SDS011;59154;51.970;5.650;2023-01-04T18:35:02;15.6;;;5.1;;
70942;SDS011;59154;51.970;5.650;2023-01-04T18:40:03;20.2;;;6.0;;
70942;SDS011;59154;51.970;5.650;2023-01-04T18:45:02;17.4;;;5.3;;
70942;SDS011;59154;51.970;5.650;2023-01-04T18:50:03;18.0;;;5.8;;
70942;SDS011;59154;51.970;5.650;2023-01-04T18:55:02;19.2;;;5.9;;
70942;SDS011;59154;51.970;5.650;2023-01-04T19:00:03;21.3;;;5.6;;
70942;SDS011;59154;51.970;5.650;2023-01-04T19:05:02;16.3;;;5.5;;
70942;SDS011;59154;51.970;5.650;2023-01-04T19:10:03;18.3;;;6.9;;
70942;SDS011;59154;51.970;5.650;2023-01-04T19:15:02;20.5;;;6.5;;
70942;SDS011;59154;51.970;5.650;2023-01-04T19:20:03;21.5;;;6.6;;
70942;SDS011;59154;51.970;5.650;2023-01-04T19:25:02;23.5;;;8.3;;
70942;SDS011;59154;51.970;5.650;2023-01-04T19:30:03;19.3;;;6.0;;
70942;SDS011;59154;51.970;5.650;2023-01-04T19:35:02;17.7;;;5.4;;
70942;SDS011;59154;51.970;5.650;2023-01-04T19:40:03;17.2;;;6.5;;
70942;SDS011;59154;51.970;5.650;2023-01-04T19:45:03;18.8;;;7.2;;
70942;SDS011;59154;51.970;5.650;2023-01-04T19:50:03;22.1;;;5.7;;
70942;SDS011;59154;51.970;5.650;2023-01-04T19:55:02;17.9;;;5.9;;
70942;SDS011;59154;51.970;5.650;2023-01-04T20:00:02;18.1;;;6.2;;
70942;SDS011;59154;51.970;5.650;2023-01-04T20:05:03;20.7;;;6.0;;
70942;SDS011;59154;51.970;5.650;2023-01-04T20:10:02;20.1;;;5.7;;
70942;SDS011;59154;51.970;5.650;2023-01-04T20:15:02;16.8;;;5.5;;
70942;SDS011;59154;51.970;5.650;2023-01-04T20:20:03;12.1;;;4.3;;
70942;SDS011;59154;51.970;5.650;2023-01-04T20:25:02;17.3;;;4.9;;
70942;SDS011;59154;51.970;5.650;2023-01-04T20:30:03;17.6;;;7.1;;
70942;SDS011;59154;51.970;5.650;2023-01-04T20:35:02;18.2;;;5.6;;
70942;SDS011;59154;51.970;5.650;2023-01-04T20:40:03;14.9;;;6.7;;
70942;SDS011;59154;51.970;5.650;2023-01-04T20:45:02;16.9;;;4.8;;
70942;SDS011;59154;51.970;5.650;2023-01-04T20:50:03;12.7;;;5.7;;
70942;SDS011;59154;51.970;5.650;2023-01-04T20:55:02;16.7;;;5.4;;
70942;SDS011;59154;51.970;5.650;2023-01-04T21:00:03;16.0;;;3.9;;
70942;SDS011;59154;51.970;5.650;2023-01-04T21:05:02;13.0;;;5.6;;
70942;SDS011;59154;51.970;5.650;2023-01-04T21:10:03;14.8;;;5.0;;
70942;SDS011;59154;51.970;5.650;2023-01-04T21:15:02;18.8;;;5.6;;
70942;SDS011;59154;51.970;5.650;2023-01-04T21:20:03;18.6;;;5.7;;
70942;SDS011;59154;51.970;5.650;2023-01-04T21:25:03;14.3;;;5.2;;
70942;SDS011;59154;51.970;5.650;2023-01-04T21:30:03;15.2;;;4.7;;
70942;SDS011;59154;51.970;5.650;2023-01-04T21:35:02;16.1;;;5.1;;
70942;SDS011;59154;51.970;5.650;2023-01-04T21:40:03;15.6;;;5.4;;
70942;SDS011;59154;51.970;5.650;2023-01-04T21:45:02;17.0;;;6.1;;
70942;SDS011;59154;51.970;5.650;2023-01-04T21:50:03;18.9;;;5.8;;
70942;SDS011;59154;51.970;5.650;2023-01-04T21:55:02;31.4;;;6.1;;
70942;SDS011;59154;51.970;5.650;2023-01-04T22:00:04;17.6;;;5.8;;
70942;SDS011;59154;51.970;5.650;2023-01-04T22:05:02;13.3;;;5.0;;
70942;SDS011;59154;51.970;5.650;2023-01-04T22:10:03;14.6;;;5.0;;
70942;SDS011;59154;51.970;5.650;2023-01-04T22:15:02;19.5;;;6.3;;
70942;SDS011;59154;51.970;5.650;2023-01-04T22:20:03;16.2;;;4.7;;
70942;SDS011;59154;51.970;5.650;2023-01-04T22:25:02;21.1;;;6.7;;
70942;SDS011;59154;51.970;5.650;2023-01-04T22:30:03;12.3;;;5.1;;
70942;SDS011;59154;51.970;5.650;2023-01-04T22:35:02;18.7;;;5.8;;
70942;SDS011;59154;51.970;5.650;2023-01-04T22:40:03;11.6;;;5.1;;
70942;SDS011;59154;51.970;5.650;2023-01-04T22:45:03;15.1;;;5.1;;
70942;SDS011;59154;51.970;5.650;2023-01-04T22:50:03;15.9;;;6.0;;
70942;SDS011;59154;51.970;5.650;2023-01-04T22:55:02;13.1;;;4.1;;
70942;SDS011;59154;51.970;5.650;2023-01-04T23:00:04;17.5;;;4.9;;
70942;SDS011;59154;51.970;5.650;2023-01-04T23:05:02;16.2;;;5.2;;
70942;SDS011;59154;51.970;5.650;2023-01-04T23:10:03;16.1;;;5.6;;
70942;SDS011;59154;51.970;5.650;2023-01-04T23:15:02;12.5;;;5.8;;
70942;SDS011;59154;51.970;5.650;2023-01-04T23:20:03;16.2;;;5.4;;
70942;SDS011;59154;51.970;5.650;2023-01-04T23:25:02;14.8;;;5.9;;
70942;SDS011;59154;51.970;5.650;2023-01-04T23:30:03;21.2;;;4.9;;
70942;SDS011;59154;51.970;5.650;2023-01-04T23:35:02;16.6;;;5.5;;
70942;SDS011;59154;51.970;5.650;2023-01-04T23:40:03;15.5;;;5.0;;
70942;SDS011;59154;51.970;5.650;2023-01-04T23:45:03;15.1;;;4.9;;
70942;SDS011;59154;51.970;5.650;2023-01-04T23:50:02;18.7;;;5.8;;
70942;SDS011;59154;51.970;5.650;2023-01-04T23:55:02;13.2;;;5.3;;
